Aviation Digital Data Service (ADDS)

Output produced by METARs form (0930 UTC 23 July 2019)
found at http://www.aviationweather.gov/metar/data/
 
METAR text: GABS 230900Z 21004KT 150V250 9999 FEW020 27/22 Q1015 NOSIG
Conditions at: GABS (BAMAKO/SENOU (MI, ML) observed 0900 UTC 23 July 2019
Temperature: 27.0°C (81°F)
Dewpoint: 22.0°C (72°F) [RH = 74%]
Pressure (altimeter): 29.97 inches Hg (1015.0 mb)
Winds: from the SSW (210 degrees) at 5 MPH (4 knots; 2.1 m/s)
Visibility: 6 or more miles (10+ km)
Ceiling: at least 12,000 feet AGL
Clouds: few clouds at 2000 feet AGL
Weather: no significant weather observed at this time

METAR text: GABS 230830Z 23006KT 9999 FEW020 27/23 Q1015 NOSIG
Conditions at: GABS (BAMAKO/SENOU (MI, ML) observed 0830 UTC 23 July 2019
Temperature: 27.0°C (81°F)
Dewpoint: 23.0°C (73°F) [RH = 79%]
Pressure (altimeter): 29.97 inches Hg (1015.0 mb)
Winds: from the SW (230 degrees) at 7 MPH (6 knots; 3.1 m/s)
Visibility: 6 or more miles (10+ km)
Ceiling: at least 12,000 feet AGL
Clouds: few clouds at 2000 feet AGL
Weather: no significant weather observed at this time

METAR text: GABS 230800Z 22005KT 9999 FEW020 26/23 Q1015 NOSIG
Conditions at: GABS (BAMAKO/SENOU (MI, ML) observed 0800 UTC 23 July 2019
Temperature: 26.0°C (79°F)
Dewpoint: 23.0°C (73°F) [RH = 84%]
Pressure (altimeter): 29.97 inches Hg (1015.0 mb)
Winds: from the SW (220 degrees) at 6 MPH (5 knots; 2.6 m/s)
Visibility: 6 or more miles (10+ km)
Ceiling: at least 12,000 feet AGL
Clouds: few clouds at 2000 feet AGL
Weather: no significant weather observed at this time

METAR text: GABS 230730Z VRB03KT 9999 FEW020 25/23 Q1015 NOSIG
Conditions at: GABS (BAMAKO/SENOU (MI, ML) observed 0730 UTC 23 July 2019
Temperature: 25.0°C (77°F)
Dewpoint: 23.0°C (73°F) [RH = 89%]
Pressure (altimeter): 29.97 inches Hg (1015.0 mb)
Winds: variable direction winds at 3 MPH (3 knots; 1.5 m/s)
Visibility: 6 or more miles (10+ km)
Ceiling: at least 12,000 feet AGL
Clouds: few clouds at 2000 feet AGL
Weather: no significant weather observed at this time

METAR text: GABS 230700Z 16003KT 9999 FEW020 24/23 Q1015 NOSIG
Conditions at: GABS (BAMAKO/SENOU (MI, ML) observed 0700 UTC 23 July 2019
Temperature: 24.0°C (75°F)
Dewpoint: 23.0°C (73°F) [RH = 94%]
Pressure (altimeter): 29.97 inches Hg (1015.0 mb)
Winds: from the SSE (160 degrees) at 3 MPH (3 knots; 1.5 m/s)
Visibility: 6 or more miles (10+ km)
Ceiling: at least 12,000 feet AGL
Clouds: few clouds at 2000 feet AGL
Weather: no significant weather observed at this time

METAR text: GABS 230630Z 18002KT 9999 FEW020 24/23 Q1014 NOSIG
Conditions at: GABS (BAMAKO/SENOU (MI, ML) observed 0630 UTC 23 July 2019
Temperature: 24.0°C (75°F)
Dewpoint: 23.0°C (73°F) [RH = 94%]
Pressure (altimeter): 29.94 inches Hg (1014.0 mb)
Winds: from the S (180 degrees) at 2 MPH (2 knots; 1.0 m/s)
Visibility: 6 or more miles (10+ km)
Ceiling: at least 12,000 feet AGL
Clouds: few clouds at 2000 feet AGL
Weather: no significant weather observed at this time

METAR text: GABS 230600Z 19004KT 9999 FEW020 24/23 Q1014 NOSIG
Conditions at: GABS (BAMAKO/SENOU (MI, ML) observed 0600 UTC 23 July 2019
Temperature: 24.0°C (75°F)
Dewpoint: 23.0°C (73°F) [RH = 94%]
Pressure (altimeter): 29.94 inches Hg (1014.0 mb)
Winds: from the S (190 degrees) at 5 MPH (4 knots; 2.1 m/s)
Visibility: 6 or more miles (10+ km)
Ceiling: at least 12,000 feet AGL
Clouds: few clouds at 2000 feet AGL
Weather: no significant weather observed at this time

METAR text: GABS 230530Z 20003KT 9999 FEW020 24/23 Q1014 NOSIG
Conditions at: GABS (BAMAKO/SENOU (MI, ML) observed 0530 UTC 23 July 2019
Temperature: 24.0°C (75°F)
Dewpoint: 23.0°C (73°F) [RH = 94%]
Pressure (altimeter): 29.94 inches Hg (1014.0 mb)
Winds: from the SSW (200 degrees) at 3 MPH (3 knots; 1.5 m/s)
Visibility: 6 or more miles (10+ km)
Ceiling: at least 12,000 feet AGL
Clouds: few clouds at 2000 feet AGL
Weather: no significant weather observed at this time

METAR text: GABS 230500Z 20003KT 9999 FEW020 24/23 Q1014 NOSIG
Conditions at: GABS (BAMAKO/SENOU (MI, ML) observed 0500 UTC 23 July 2019
Temperature: 24.0°C (75°F)
Dewpoint: 23.0°C (73°F) [RH = 94%]
Pressure (altimeter): 29.94 inches Hg (1014.0 mb)
Winds: from the SSW (200 degrees) at 3 MPH (3 knots; 1.5 m/s)
Visibility: 6 or more miles (10+ km)
Ceiling: at least 12,000 feet AGL
Clouds: few clouds at 2000 feet AGL
Weather: no significant weather observed at this time

METAR text: GABS 230430Z 19003KT 9999 FEW020 24/23 Q1014 NOSIG
Conditions at: GABS (BAMAKO/SENOU (MI, ML) observed 0430 UTC 23 July 2019
Temperature: 24.0°C (75°F)
Dewpoint: 23.0°C (73°F) [RH = 94%]
Pressure (altimeter): 29.94 inches Hg (1014.0 mb)
Winds: from the S (190 degrees) at 3 MPH (3 knots; 1.5 m/s)
Visibility: 6 or more miles (10+ km)
Ceiling: at least 12,000 feet AGL
Clouds: few clouds at 2000 feet AGL
Weather: no significant weather observed at this time

METAR text: GABS 230330Z 22004KT 9999 FEW020 24/23 Q1014 NOSIG
Conditions at: GABS (BAMAKO/SENOU (MI, ML) observed 0330 UTC 23 July 2019
Temperature: 24.0°C (75°F)
Dewpoint: 23.0°C (73°F) [RH = 94%]
Pressure (altimeter): 29.94 inches Hg (1014.0 mb)
Winds: from the SW (220 degrees) at 5 MPH (4 knots; 2.1 m/s)
Visibility: 6 or more miles (10+ km)
Ceiling: at least 12,000 feet AGL
Clouds: few clouds at 2000 feet AGL
Weather: no significant weather observed at this time

METAR text: GABS 230300Z 21007KT 9999 FEW020 25/23 Q1013 NOSIG
Conditions at: GABS (BAMAKO/SENOU (MI, ML) observed 0300 UTC 23 July 2019
Temperature: 25.0°C (77°F)
Dewpoint: 23.0°C (73°F) [RH = 89%]
Pressure (altimeter): 29.91 inches Hg (1013.0 mb)
Winds: from the SSW (210 degrees) at 8 MPH (7 knots; 3.6 m/s)
Visibility: 6 or more miles (10+ km)
Ceiling: at least 12,000 feet AGL
Clouds: few clouds at 2000 feet AGL
Weather: no significant weather observed at this time

METAR text: GABS 230230Z 20005KT 9999 FEW020 25/23 Q1014 NOSIG
Conditions at: GABS (BAMAKO/SENOU (MI, ML) observed 0230 UTC 23 July 2019
Temperature: 25.0°C (77°F)
Dewpoint: 23.0°C (73°F) [RH = 89%]
Pressure (altimeter): 29.94 inches Hg (1014.0 mb)
Winds: from the SSW (200 degrees) at 6 MPH (5 knots; 2.6 m/s)
Visibility: 6 or more miles (10+ km)
Ceiling: at least 12,000 feet AGL
Clouds: few clouds at 2000 feet AGL
Weather: no significant weather observed at this time

METAR text: GABS 230200Z 18004KT 150V210 9999 FEW020 26/23 Q1014 NOSIG
Conditions at: GABS (BAMAKO/SENOU (MI, ML) observed 0200 UTC 23 July 2019
Temperature: 26.0°C (79°F)
Dewpoint: 23.0°C (73°F) [RH = 84%]
Pressure (altimeter): 29.94 inches Hg (1014.0 mb)
Winds: from the S (180 degrees) at 5 MPH (4 knots; 2.1 m/s)
Visibility: 6 or more miles (10+ km)
Ceiling: at least 12,000 feet AGL
Clouds: few clouds at 2000 feet AGL
Weather: no significant weather observed at this time

METAR text: GABS 230130Z 16003KT 9999 FEW020 25/23 Q1014 NOSIG
Conditions at: GABS (BAMAKO/SENOU (MI, ML) observed 0130 UTC 23 July 2019
Temperature: 25.0°C (77°F)
Dewpoint: 23.0°C (73°F) [RH = 89%]
Pressure (altimeter): 29.94 inches Hg (1014.0 mb)
Winds: from the SSE (160 degrees) at 3 MPH (3 knots; 1.5 m/s)
Visibility: 6 or more miles (10+ km)
Ceiling: at least 12,000 feet AGL
Clouds: few clouds at 2000 feet AGL
Weather: no significant weather observed at this time

METAR text: GABS 230030Z 17005KT 9999 FEW020 26/22 Q1014 NOSIG
Conditions at: GABS (BAMAKO/SENOU (MI, ML) observed 0030 UTC 23 July 2019
Temperature: 26.0°C (79°F)
Dewpoint: 22.0°C (72°F) [RH = 79%]
Pressure (altimeter): 29.94 inches Hg (1014.0 mb)
Winds: from the S (170 degrees) at 6 MPH (5 knots; 2.6 m/s)
Visibility: 6 or more miles (10+ km)
Ceiling: at least 12,000 feet AGL
Clouds: few clouds at 2000 feet AGL
Weather: no significant weather observed at this time

METAR text: GABS 230000Z 18004KT 9999 FEW020 26/23 Q1014 NOSIG
Conditions at: GABS (BAMAKO/SENOU (MI, ML) observed 0000 UTC 23 July 2019
Temperature: 26.0°C (79°F)
Dewpoint: 23.0°C (73°F) [RH = 84%]
Pressure (altimeter): 29.94 inches Hg (1014.0 mb)
Winds: from the S (180 degrees) at 5 MPH (4 knots; 2.1 m/s)
Visibility: 6 or more miles (10+ km)
Ceiling: at least 12,000 feet AGL
Clouds: few clouds at 2000 feet AGL
Weather: no significant weather observed at this time

METAR text: GABS 222300Z 14003KT 9999 FEW020 26/23 Q1014 NOSIG
Conditions at: GABS (BAMAKO/SENOU (MI, ML) observed 2300 UTC 22 July 2019
Temperature: 26.0°C (79°F)
Dewpoint: 23.0°C (73°F) [RH = 84%]
Pressure (altimeter): 29.94 inches Hg (1014.0 mb)
Winds: from the SE (140 degrees) at 3 MPH (3 knots; 1.5 m/s)
Visibility: 6 or more miles (10+ km)
Ceiling: at least 12,000 feet AGL
Clouds: few clouds at 2000 feet AGL
Weather: no significant weather observed at this time

METAR text: GABS 222230Z 14004KT 9999 FEW020 27/23 Q1014 NOSIG
Conditions at: GABS (BAMAKO/SENOU (MI, ML) observed 2230 UTC 22 July 2019
Temperature: 27.0°C (81°F)
Dewpoint: 23.0°C (73°F) [RH = 79%]
Pressure (altimeter): 29.94 inches Hg (1014.0 mb)
Winds: from the SE (140 degrees) at 5 MPH (4 knots; 2.1 m/s)
Visibility: 6 or more miles (10+ km)
Ceiling: at least 12,000 feet AGL
Clouds: few clouds at 2000 feet AGL
Weather: no significant weather observed at this time

METAR text: GABS 222200Z 09004KT 9999 FEW020 FEW030CB 27/23 Q1014 RETS NOSIG
Conditions at: GABS (BAMAKO/SENOU (MI, ML) observed 2200 UTC 22 July 2019
Temperature: 27.0°C (81°F)
Dewpoint: 23.0°C (73°F) [RH = 79%]
Pressure (altimeter): 29.94 inches Hg (1014.0 mb)
Winds: from the E (90 degrees) at 5 MPH (4 knots; 2.1 m/s)
Visibility: 6 or more miles (10+ km)
Ceiling: at least 12,000 feet AGL
Clouds: few clouds at 2000 feet AGL
few clouds at 3000 feet AGL
Weather: no significant weather observed at this time

METAR text: GABS 222130Z 11002KT 9999 TS FEW020 FEW030CB 27/23 Q1014 BECMG NSW
Conditions at: GABS (BAMAKO/SENOU (MI, ML) observed 2130 UTC 22 July 2019
Temperature: 27.0°C (81°F)
Dewpoint: 23.0°C (73°F) [RH = 79%]
Pressure (altimeter): 29.94 inches Hg (1014.0 mb)
Winds: from the ESE (110 degrees) at 2 MPH (2 knots; 1.0 m/s)
Visibility: 6 or more miles (10+ km)
Ceiling: at least 12,000 feet AGL
Clouds: few clouds at 2000 feet AGL
few clouds at 3000 feet AGL
Weather: TS  (thunderstorm)

METAR text: GABS 222100Z 15003KT 9999 TS FEW020 FEW030CB 27/23 Q1014 NOSIG
Conditions at: GABS (BAMAKO/SENOU (MI, ML) observed 2100 UTC 22 July 2019
Temperature: 27.0°C (81°F)
Dewpoint: 23.0°C (73°F) [RH = 79%]
Pressure (altimeter): 29.94 inches Hg (1014.0 mb)
Winds: from the SSE (150 degrees) at 3 MPH (3 knots; 1.5 m/s)
Visibility: 6 or more miles (10+ km)
Ceiling: at least 12,000 feet AGL
Clouds: few clouds at 2000 feet AGL
few clouds at 3000 feet AGL
Weather: TS  (thunderstorm)

METAR text: GABS 222030Z 16003KT 9999 TS FEW020 FEW030CB 28/22 Q1013 NOSIG
Conditions at: GABS (BAMAKO/SENOU (MI, ML) observed 2030 UTC 22 July 2019
Temperature: 28.0°C (82°F)
Dewpoint: 22.0°C (72°F) [RH = 70%]
Pressure (altimeter): 29.91 inches Hg (1013.0 mb)
Winds: from the SSE (160 degrees) at 3 MPH (3 knots; 1.5 m/s)
Visibility: 6 or more miles (10+ km)
Ceiling: at least 12,000 feet AGL
Clouds: few clouds at 2000 feet AGL
few clouds at 3000 feet AGL
Weather: TS  (thunderstorm)

METAR text: GABS 222000Z 14004KT 9999 TS FEW020 FEW030CB 29/22 Q1013 NOSIG
Conditions at: GABS (BAMAKO/SENOU (MI, ML) observed 2000 UTC 22 July 2019
Temperature: 29.0°C (84°F)
Dewpoint: 22.0°C (72°F) [RH = 66%]
Pressure (altimeter): 29.91 inches Hg (1013.0 mb)
Winds: from the SE (140 degrees) at 5 MPH (4 knots; 2.1 m/s)
Visibility: 6 or more miles (10+ km)
Ceiling: at least 12,000 feet AGL
Clouds: few clouds at 2000 feet AGL
few clouds at 3000 feet AGL
Weather: TS  (thunderstorm)

METAR text: GABS 221900Z 14005KT 110V170 9999 FEW020 FEW030TCU 29/22 Q1013 TEMPO TS
Conditions at: GABS (BAMAKO/SENOU (MI, ML) observed 1900 UTC 22 July 2019
Temperature: 29.0°C (84°F)
Dewpoint: 22.0°C (72°F) [RH = 66%]
Pressure (altimeter): 29.91 inches Hg (1013.0 mb)
Winds: from the SE (140 degrees) at 6 MPH (5 knots; 2.6 m/s)
Visibility: 6 or more miles (10+ km)
Ceiling: at least 12,000 feet AGL
Clouds: few clouds at 2000 feet AGL
few clouds at 3000 feet AGL
Weather: no significant weather observed at this time

METAR text: GABS 221830Z 14005KT 110V180 9999 FEW020 FEW030TCU 31/22 Q1012 TEMPO TS
Conditions at: GABS (BAMAKO/SENOU (MI, ML) observed 1830 UTC 22 July 2019
Temperature: 31.0°C (88°F)
Dewpoint: 22.0°C (72°F) [RH = 59%]
Pressure (altimeter): 29.88 inches Hg (1012.0 mb)
Winds: from the SE (140 degrees) at 6 MPH (5 knots; 2.6 m/s)
Visibility: 6 or more miles (10+ km)
Ceiling: at least 12,000 feet AGL
Clouds: few clouds at 2000 feet AGL
few clouds at 3000 feet AGL
Weather: no significant weather observed at this time

METAR text: GABS 221800Z 16006KT 9999 FEW020 FEW030TCU 31/21 Q1012 TEMPO TS
Conditions at: GABS (BAMAKO/SENOU (MI, ML) observed 1800 UTC 22 July 2019
Temperature: 31.0°C (88°F)
Dewpoint: 21.0°C (70°F) [RH = 55%]
Pressure (altimeter): 29.88 inches Hg (1012.0 mb)
Winds: from the SSE (160 degrees) at 7 MPH (6 knots; 3.1 m/s)
Visibility: 6 or more miles (10+ km)
Ceiling: at least 12,000 feet AGL
Clouds: few clouds at 2000 feet AGL
few clouds at 3000 feet AGL
Weather: no significant weather observed at this time

METAR text: GABS 221730Z 15003KT 080V200 9999 FEW020 FEW030TCU 32/21 Q1012 TEMPO TS
Conditions at: GABS (BAMAKO/SENOU (MI, ML) observed 1730 UTC 22 July 2019
Temperature: 32.0°C (90°F)
Dewpoint: 21.0°C (70°F) [RH = 52%]
Pressure (altimeter): 29.88 inches Hg (1012.0 mb)
Winds: from the SSE (150 degrees) at 3 MPH (3 knots; 1.5 m/s)
Visibility: 6 or more miles (10+ km)
Ceiling: at least 12,000 feet AGL
Clouds: few clouds at 2000 feet AGL
few clouds at 3000 feet AGL
Weather: no significant weather observed at this time

METAR text: GABS 221700Z 21003KT 170V240 9999 FEW020 FEW030TCU 31/22 Q1012 TEMPO TS
Conditions at: GABS (BAMAKO/SENOU (MI, ML) observed 1700 UTC 22 July 2019
Temperature: 31.0°C (88°F)
Dewpoint: 22.0°C (72°F) [RH = 59%]
Pressure (altimeter): 29.88 inches Hg (1012.0 mb)
Winds: from the SSW (210 degrees) at 3 MPH (3 knots; 1.5 m/s)
Visibility: 6 or more miles (10+ km)
Ceiling: at least 12,000 feet AGL
Clouds: few clouds at 2000 feet AGL
few clouds at 3000 feet AGL
Weather: no significant weather observed at this time

METAR text: GABS 221630Z 20003KT 150V250 9999 FEW020 FEW030TCU 31/22 Q1012 TEMPO TS
Conditions at: GABS (BAMAKO/SENOU (MI, ML) observed 1630 UTC 22 July 2019
Temperature: 31.0°C (88°F)
Dewpoint: 22.0°C (72°F) [RH = 59%]
Pressure (altimeter): 29.88 inches Hg (1012.0 mb)
Winds: from the SSW (200 degrees) at 3 MPH (3 knots; 1.5 m/s)
Visibility: 6 or more miles (10+ km)
Ceiling: at least 12,000 feet AGL
Clouds: few clouds at 2000 feet AGL
few clouds at 3000 feet AGL
Weather: no significant weather observed at this time

METAR text: GABS 221600Z 20009KT 160V230 9999 SCT020 FEW030TCU 30/23 Q1012 TEMPO TS
Conditions at: GABS (BAMAKO/SENOU (MI, ML) observed 1600 UTC 22 July 2019
Temperature: 30.0°C (86°F)
Dewpoint: 23.0°C (73°F) [RH = 66%]
Pressure (altimeter): 29.88 inches Hg (1012.0 mb)
Winds: from the SSW (200 degrees) at 10 MPH (9 knots; 4.6 m/s)
Visibility: 6 or more miles (10+ km)
Ceiling: at least 12,000 feet AGL
Clouds: scattered clouds at 2000 feet AGL
few clouds at 3000 feet AGL
Weather: no significant weather observed at this time

METAR text: GABS 221530Z 19004KT 140V270 9999 SCT020 FEW030TCU 31/21 Q1013 NOSIG
Conditions at: GABS (BAMAKO/SENOU (MI, ML) observed 1530 UTC 22 July 2019
Temperature: 31.0°C (88°F)
Dewpoint: 21.0°C (70°F) [RH = 55%]
Pressure (altimeter): 29.91 inches Hg (1013.0 mb)
Winds: from the S (190 degrees) at 5 MPH (4 knots; 2.1 m/s)
Visibility: 6 or more miles (10+ km)
Ceiling: at least 12,000 feet AGL
Clouds: scattered clouds at 2000 feet AGL
few clouds at 3000 feet AGL
Weather: no significant weather observed at this time

METAR text: GABS 221500Z 16006KT 110V210 9999 SCT020 FEW030TCU 31/22 Q1013 NOSIG
Conditions at: GABS (BAMAKO/SENOU (MI, ML) observed 1500 UTC 22 July 2019
Temperature: 31.0°C (88°F)
Dewpoint: 22.0°C (72°F) [RH = 59%]
Pressure (altimeter): 29.91 inches Hg (1013.0 mb)
Winds: from the SSE (160 degrees) at 7 MPH (6 knots; 3.1 m/s)
Visibility: 6 or more miles (10+ km)
Ceiling: at least 12,000 feet AGL
Clouds: scattered clouds at 2000 feet AGL
few clouds at 3000 feet AGL
Weather: no significant weather observed at this time

METAR text: GABS 221430Z 16004KT 140V210 9999 SCT020 FEW030TCU 31/22 Q1013 TEMPO TS
Conditions at: GABS (BAMAKO/SENOU (MI, ML) observed 1430 UTC 22 July 2019
Temperature: 31.0°C (88°F)
Dewpoint: 22.0°C (72°F) [RH = 59%]
Pressure (altimeter): 29.91 inches Hg (1013.0 mb)
Winds: from the SSE (160 degrees) at 5 MPH (4 knots; 2.1 m/s)
Visibility: 6 or more miles (10+ km)
Ceiling: at least 12,000 feet AGL
Clouds: scattered clouds at 2000 feet AGL
few clouds at 3000 feet AGL
Weather: no significant weather observed at this time

METAR text: GABS 221400Z 15004KT 100V210 9999 SCT020 FEW030TCU 31/22 Q1014 NOSIG
Conditions at: GABS (BAMAKO/SENOU (MI, ML) observed 1400 UTC 22 July 2019
Temperature: 31.0°C (88°F)
Dewpoint: 22.0°C (72°F) [RH = 59%]
Pressure (altimeter): 29.94 inches Hg (1014.0 mb)
Winds: from the SSE (150 degrees) at 5 MPH (4 knots; 2.1 m/s)
Visibility: 6 or more miles (10+ km)
Ceiling: at least 12,000 feet AGL
Clouds: scattered clouds at 2000 feet AGL
few clouds at 3000 feet AGL
Weather: no significant weather observed at this time

METAR text: GABS 221330Z 16004KT 110V190 9999 BKN020 30/22 Q1014 NOSIG
Conditions at: GABS (BAMAKO/SENOU (MI, ML) observed 1330 UTC 22 July 2019
Temperature: 30.0°C (86°F)
Dewpoint: 22.0°C (72°F) [RH = 62%]
Pressure (altimeter): 29.94 inches Hg (1014.0 mb)
Winds: from the SSE (160 degrees) at 5 MPH (4 knots; 2.1 m/s)
Visibility: 6 or more miles (10+ km)
Ceiling: 2000 feet AGL
Clouds: broken clouds at 2000 feet AGL
Weather: no significant weather observed at this time

METAR text: GABS 221300Z VRB03KT 9999 BKN020 31/22 Q1014 NOSIG
Conditions at: GABS (BAMAKO/SENOU (MI, ML) observed 1300 UTC 22 July 2019
Temperature: 31.0°C (88°F)
Dewpoint: 22.0°C (72°F) [RH = 59%]
Pressure (altimeter): 29.94 inches Hg (1014.0 mb)
Winds: variable direction winds at 3 MPH (3 knots; 1.5 m/s)
Visibility: 6 or more miles (10+ km)
Ceiling: 2000 feet AGL
Clouds: broken clouds at 2000 feet AGL
Weather: no significant weather observed at this time

METAR text: GABS 221230Z 19004KT 100V240 9999 SCT020 31/22 Q1015 NOSIG
Conditions at: GABS (BAMAKO/SENOU (MI, ML) observed 1230 UTC 22 July 2019
Temperature: 31.0°C (88°F)
Dewpoint: 22.0°C (72°F) [RH = 59%]
Pressure (altimeter): 29.97 inches Hg (1015.0 mb)
Winds: from the S (190 degrees) at 5 MPH (4 knots; 2.1 m/s)
Visibility: 6 or more miles (10+ km)
Ceiling: at least 12,000 feet AGL
Clouds: scattered clouds at 2000 feet AGL
Weather: no significant weather observed at this time

METAR text: GABS 221200Z 20005KT 130V250 9999 SCT020 30/22 Q1015 NOSIG
Conditions at: GABS (BAMAKO/SENOU (MI, ML) observed 1200 UTC 22 July 2019
Temperature: 30.0°C (86°F)
Dewpoint: 22.0°C (72°F) [RH = 62%]
Pressure (altimeter): 29.97 inches Hg (1015.0 mb)
Winds: from the SSW (200 degrees) at 6 MPH (5 knots; 2.6 m/s)
Visibility: 6 or more miles (10+ km)
Ceiling: at least 12,000 feet AGL
Clouds: scattered clouds at 2000 feet AGL
Weather: no significant weather observed at this time

METAR text: GABS 221130Z 17005KT 130V220 9999 SCT020 30/22 Q1015 NOSIG
Conditions at: GABS (BAMAKO/SENOU (MI, ML) observed 1130 UTC 22 July 2019
Temperature: 30.0°C (86°F)
Dewpoint: 22.0°C (72°F) [RH = 62%]
Pressure (altimeter): 29.97 inches Hg (1015.0 mb)
Winds: from the S (170 degrees) at 6 MPH (5 knots; 2.6 m/s)
Visibility: 6 or more miles (10+ km)
Ceiling: at least 12,000 feet AGL
Clouds: scattered clouds at 2000 feet AGL
Weather: no significant weather observed at this time

METAR text: GABS 221100Z 19006KT 150V220 9999 SCT020 29/23 Q1015 NOSIG
Conditions at: GABS (BAMAKO/SENOU (MI, ML) observed 1100 UTC 22 July 2019
Temperature: 29.0°C (84°F)
Dewpoint: 23.0°C (73°F) [RH = 70%]
Pressure (altimeter): 29.97 inches Hg (1015.0 mb)
Winds: from the S (190 degrees) at 7 MPH (6 knots; 3.1 m/s)
Visibility: 6 or more miles (10+ km)
Ceiling: at least 12,000 feet AGL
Clouds: scattered clouds at 2000 feet AGL
Weather: no significant weather observed at this time

METAR text: GABS 221000Z 20006KT 170V240 9999 SCT020 28/23 Q1015 NOSIG
Conditions at: GABS (BAMAKO/SENOU (MI, ML) observed 1000 UTC 22 July 2019
Temperature: 28.0°C (82°F)
Dewpoint: 23.0°C (73°F) [RH = 74%]
Pressure (altimeter): 29.97 inches Hg (1015.0 mb)
Winds: from the SSW (200 degrees) at 7 MPH (6 knots; 3.1 m/s)
Visibility: 6 or more miles (10+ km)
Ceiling: at least 12,000 feet AGL
Clouds: scattered clouds at 2000 feet AGL
Weather: no significant weather observed at this time

METAR text: GABS 220930Z 20007KT 160V240 9999 SCT020 28/23 Q1015 NOSIG
Conditions at: GABS (BAMAKO/SENOU (MI, ML) observed 0930 UTC 22 July 2019
Temperature: 28.0°C (82°F)
Dewpoint: 23.0°C (73°F) [RH = 74%]
Pressure (altimeter): 29.97 inches Hg (1015.0 mb)
Winds: from the SSW (200 degrees) at 8 MPH (7 knots; 3.6 m/s)
Visibility: 6 or more miles (10+ km)
Ceiling: at least 12,000 feet AGL
Clouds: scattered clouds at 2000 feet AGL
Weather: no significant weather observed at this time

METAR text: GABS 220900Z 19007KT 160V240 9999 FEW020 27/23 Q1015 NOSIG
Conditions at: GABS (BAMAKO/SENOU (MI, ML) observed 0900 UTC 22 July 2019
Temperature: 27.0°C (81°F)
Dewpoint: 23.0°C (73°F) [RH = 79%]
Pressure (altimeter): 29.97 inches Hg (1015.0 mb)
Winds: from the S (190 degrees) at 8 MPH (7 knots; 3.6 m/s)
Visibility: 6 or more miles (10+ km)
Ceiling: at least 12,000 feet AGL
Clouds: few clouds at 2000 feet AGL
Weather: no significant weather observed at this time

METAR text: GABS 220830Z 18006KT 9999 FEW020 27/23 Q1014 NOSIG
Conditions at: GABS (BAMAKO/SENOU (MI, ML) observed 0830 UTC 22 July 2019
Temperature: 27.0°C (81°F)
Dewpoint: 23.0°C (73°F) [RH = 79%]
Pressure (altimeter): 29.94 inches Hg (1014.0 mb)
Winds: from the S (180 degrees) at 7 MPH (6 knots; 3.1 m/s)
Visibility: 6 or more miles (10+ km)
Ceiling: at least 12,000 feet AGL
Clouds: few clouds at 2000 feet AGL
Weather: no significant weather observed at this time

METAR text: GABS 220800Z 18005KT 150V210 9999 FEW020 26/23 Q1014 NOSIG
Conditions at: GABS (BAMAKO/SENOU (MI, ML) observed 0800 UTC 22 July 2019
Temperature: 26.0°C (79°F)
Dewpoint: 23.0°C (73°F) [RH = 84%]
Pressure (altimeter): 29.94 inches Hg (1014.0 mb)
Winds: from the S (180 degrees) at 6 MPH (5 knots; 2.6 m/s)
Visibility: 6 or more miles (10+ km)
Ceiling: at least 12,000 feet AGL
Clouds: few clouds at 2000 feet AGL
Weather: no significant weather observed at this time

METAR text: GABS 220730Z 15004KT 120V190 9999 FEW020 25/23 Q1014 NOSIG
Conditions at: GABS (BAMAKO/SENOU (MI, ML) observed 0730 UTC 22 July 2019
Temperature: 25.0°C (77°F)
Dewpoint: 23.0°C (73°F) [RH = 89%]
Pressure (altimeter): 29.94 inches Hg (1014.0 mb)
Winds: from the SSE (150 degrees) at 5 MPH (4 knots; 2.1 m/s)
Visibility: 6 or more miles (10+ km)
Ceiling: at least 12,000 feet AGL
Clouds: few clouds at 2000 feet AGL
Weather: no significant weather observed at this time

METAR text: GABS 220700Z 12004KT 090V150 9999 FEW020 24/23 Q1014 NOSIG
Conditions at: GABS (BAMAKO/SENOU (MI, ML) observed 0700 UTC 22 July 2019
Temperature: 24.0°C (75°F)
Dewpoint: 23.0°C (73°F) [RH = 94%]
Pressure (altimeter): 29.94 inches Hg (1014.0 mb)
Winds: from the ESE (120 degrees) at 5 MPH (4 knots; 2.1 m/s)
Visibility: 6 or more miles (10+ km)
Ceiling: at least 12,000 feet AGL
Clouds: few clouds at 2000 feet AGL
Weather: no significant weather observed at this time

METAR text: GABS 220630Z 11003KT 9999 FEW020 23/22 Q1014 NOSIG
Conditions at: GABS (BAMAKO/SENOU (MI, ML) observed 0630 UTC 22 July 2019
Temperature: 23.0°C (73°F)
Dewpoint: 22.0°C (72°F) [RH = 94%]
Pressure (altimeter): 29.94 inches Hg (1014.0 mb)
Winds: from the ESE (110 degrees) at 3 MPH (3 knots; 1.5 m/s)
Visibility: 6 or more miles (10+ km)
Ceiling: at least 12,000 feet AGL
Clouds: few clouds at 2000 feet AGL
Weather: no significant weather observed at this time

METAR text: GABS 220600Z 12003KT 9999 FEW020 23/22 Q1014 NOSIG
Conditions at: GABS (BAMAKO/SENOU (MI, ML) observed 0600 UTC 22 July 2019
Temperature: 23.0°C (73°F)
Dewpoint: 22.0°C (72°F) [RH = 94%]
Pressure (altimeter): 29.94 inches Hg (1014.0 mb)
Winds: from the ESE (120 degrees) at 3 MPH (3 knots; 1.5 m/s)
Visibility: 6 or more miles (10+ km)
Ceiling: at least 12,000 feet AGL
Clouds: few clouds at 2000 feet AGL
Weather: no significant weather observed at this time

METAR text: GABS 220530Z 11003KT 9999 FEW020 23/22 Q1013 NOSIG
Conditions at: GABS (BAMAKO/SENOU (MI, ML) observed 0530 UTC 22 July 2019
Temperature: 23.0°C (73°F)
Dewpoint: 22.0°C (72°F) [RH = 94%]
Pressure (altimeter): 29.91 inches Hg (1013.0 mb)
Winds: from the ESE (110 degrees) at 3 MPH (3 knots; 1.5 m/s)
Visibility: 6 or more miles (10+ km)
Ceiling: at least 12,000 feet AGL
Clouds: few clouds at 2000 feet AGL
Weather: no significant weather observed at this time

METAR text: GABS 220500Z 09003KT 9999 FEW020 23/22 Q1013 NOSIG
Conditions at: GABS (BAMAKO/SENOU (MI, ML) observed 0500 UTC 22 July 2019
Temperature: 23.0°C (73°F)
Dewpoint: 22.0°C (72°F) [RH = 94%]
Pressure (altimeter): 29.91 inches Hg (1013.0 mb)
Winds: from the E (90 degrees) at 3 MPH (3 knots; 1.5 m/s)
Visibility: 6 or more miles (10+ km)
Ceiling: at least 12,000 feet AGL
Clouds: few clouds at 2000 feet AGL
Weather: no significant weather observed at this time

METAR text: GABS 220430Z 11002KT 9999 FEW020 24/22 Q1013 NOSIG
Conditions at: GABS (BAMAKO/SENOU (MI, ML) observed 0430 UTC 22 July 2019
Temperature: 24.0°C (75°F)
Dewpoint: 22.0°C (72°F) [RH = 89%]
Pressure (altimeter): 29.91 inches Hg (1013.0 mb)
Winds: from the ESE (110 degrees) at 2 MPH (2 knots; 1.0 m/s)
Visibility: 6 or more miles (10+ km)
Ceiling: at least 12,000 feet AGL
Clouds: few clouds at 2000 feet AGL
Weather: no significant weather observed at this time

METAR text: GABS 220400Z 11003KT 9999 FEW020 24/23 Q1013 NOSIG
Conditions at: GABS (BAMAKO/SENOU (MI, ML) observed 0400 UTC 22 July 2019
Temperature: 24.0°C (75°F)
Dewpoint: 23.0°C (73°F) [RH = 94%]
Pressure (altimeter): 29.91 inches Hg (1013.0 mb)
Winds: from the ESE (110 degrees) at 3 MPH (3 knots; 1.5 m/s)
Visibility: 6 or more miles (10+ km)
Ceiling: at least 12,000 feet AGL
Clouds: few clouds at 2000 feet AGL
Weather: no significant weather observed at this time

METAR text: GABS 220330Z 08002KT 9999 FEW020 24/23 Q1012 NOSIG
Conditions at: GABS (BAMAKO/SENOU (MI, ML) observed 0330 UTC 22 July 2019
Temperature: 24.0°C (75°F)
Dewpoint: 23.0°C (73°F) [RH = 94%]
Pressure (altimeter): 29.88 inches Hg (1012.0 mb)
Winds: from the E (80 degrees) at 2 MPH (2 knots; 1.0 m/s)
Visibility: 6 or more miles (10+ km)
Ceiling: at least 12,000 feet AGL
Clouds: few clouds at 2000 feet AGL
Weather: no significant weather observed at this time

METAR text: GABS 220300Z 11002KT 9999 FEW020 24/23 Q1012 NOSIG
Conditions at: GABS (BAMAKO/SENOU (MI, ML) observed 0300 UTC 22 July 2019
Temperature: 24.0°C (75°F)
Dewpoint: 23.0°C (73°F) [RH = 94%]
Pressure (altimeter): 29.88 inches Hg (1012.0 mb)
Winds: from the ESE (110 degrees) at 2 MPH (2 knots; 1.0 m/s)
Visibility: 6 or more miles (10+ km)
Ceiling: at least 12,000 feet AGL
Clouds: few clouds at 2000 feet AGL
Weather: no significant weather observed at this time

METAR text: GABS 220230Z 11002KT 9999 FEW020 24/22 Q1012 NOSIG
Conditions at: GABS (BAMAKO/SENOU (MI, ML) observed 0230 UTC 22 July 2019
Temperature: 24.0°C (75°F)
Dewpoint: 22.0°C (72°F) [RH = 89%]
Pressure (altimeter): 29.88 inches Hg (1012.0 mb)
Winds: from the ESE (110 degrees) at 2 MPH (2 knots; 1.0 m/s)
Visibility: 6 or more miles (10+ km)
Ceiling: at least 12,000 feet AGL
Clouds: few clouds at 2000 feet AGL
Weather: no significant weather observed at this time

METAR text: GABS 220200Z 12002KT 9999 FEW020 24/23 Q1012 NOSIG
Conditions at: GABS (BAMAKO/SENOU (MI, ML) observed 0200 UTC 22 July 2019
Temperature: 24.0°C (75°F)
Dewpoint: 23.0°C (73°F) [RH = 94%]
Pressure (altimeter): 29.88 inches Hg (1012.0 mb)
Winds: from the ESE (120 degrees) at 2 MPH (2 knots; 1.0 m/s)
Visibility: 6 or more miles (10+ km)
Ceiling: at least 12,000 feet AGL
Clouds: few clouds at 2000 feet AGL
Weather: no significant weather observed at this time

METAR text: GABS 220130Z 00000KT 9999 FEW020 24/23 Q1013 NOSIG
Conditions at: GABS (BAMAKO/SENOU (MI, ML) observed 0130 UTC 22 July 2019
Temperature: 24.0°C (75°F)
Dewpoint: 23.0°C (73°F) [RH = 94%]
Pressure (altimeter): 29.91 inches Hg (1013.0 mb)
Winds: calm
Visibility: 6 or more miles (10+ km)
Ceiling: at least 12,000 feet AGL
Clouds: few clouds at 2000 feet AGL
Weather: no significant weather observed at this time

METAR text: GABS 220100Z 12001KT 9999 FEW020 24/23 Q1013 NOSIG
Conditions at: GABS (BAMAKO/SENOU (MI, ML) observed 0100 UTC 22 July 2019
Temperature: 24.0°C (75°F)
Dewpoint: 23.0°C (73°F) [RH = 94%]
Pressure (altimeter): 29.91 inches Hg (1013.0 mb)
Winds: from the ESE (120 degrees) at 1 MPH (1 knots; 0.5 m/s)
Visibility: 6 or more miles (10+ km)
Ceiling: at least 12,000 feet AGL
Clouds: few clouds at 2000 feet AGL
Weather: no significant weather observed at this time

METAR text: GABS 220000Z 11002KT 9999 FEW020 25/22 Q1014 NOSIG
Conditions at: GABS (BAMAKO/SENOU (MI, ML) observed 0000 UTC 22 July 2019
Temperature: 25.0°C (77°F)
Dewpoint: 22.0°C (72°F) [RH = 83%]
Pressure (altimeter): 29.94 inches Hg (1014.0 mb)
Winds: from the ESE (110 degrees) at 2 MPH (2 knots; 1.0 m/s)
Visibility: 6 or more miles (10+ km)
Ceiling: at least 12,000 feet AGL
Clouds: few clouds at 2000 feet AGL
Weather: no significant weather observed at this time

METAR text: GABS 212330Z VRB01KT 9999 FEW020 FEW030CB 25/23 Q1014 RETS NOSIG
Conditions at: GABS (BAMAKO/SENOU (MI, ML) observed 2330 UTC 21 July 2019
Temperature: 25.0°C (77°F)
Dewpoint: 23.0°C (73°F) [RH = 89%]
Pressure (altimeter): 29.94 inches Hg (1014.0 mb)
Winds: variable direction winds at 1 MPH (1 knots; 0.5 m/s)
Visibility: 6 or more miles (10+ km)
Ceiling: at least 12,000 feet AGL
Clouds: few clouds at 2000 feet AGL
few clouds at 3000 feet AGL
Weather: no significant weather observed at this time

METAR text: GABS 212300Z 00000KT 9999 FEW020 FEW030CB 25/22 Q1014 RETS NOSIG
Conditions at: GABS (BAMAKO/SENOU (MI, ML) observed 2300 UTC 21 July 2019
Temperature: 25.0°C (77°F)
Dewpoint: 22.0°C (72°F) [RH = 83%]
Pressure (altimeter): 29.94 inches Hg (1014.0 mb)
Winds: calm
Visibility: 6 or more miles (10+ km)
Ceiling: at least 12,000 feet AGL
Clouds: few clouds at 2000 feet AGL
few clouds at 3000 feet AGL
Weather: no significant weather observed at this time

METAR text: GABS 212200Z 01007KT 9999 TS FEW020 FEW030CB 26/21 Q1015 NOSIG
Conditions at: GABS (BAMAKO/SENOU (MI, ML) observed 2200 UTC 21 July 2019
Temperature: 26.0°C (79°F)
Dewpoint: 21.0°C (70°F) [RH = 74%]
Pressure (altimeter): 29.97 inches Hg (1015.0 mb)
Winds: from the N (10 degrees) at 8 MPH (7 knots; 3.6 m/s)
Visibility: 6 or more miles (10+ km)
Ceiling: at least 12,000 feet AGL
Clouds: few clouds at 2000 feet AGL
few clouds at 3000 feet AGL
Weather: TS  (thunderstorm)

Forecast for: GABS (BAMAKO/SENOU (MI, ML)
Text: TAF GABS 230530Z 2306/2412 20008KT 9999 FEW023
Forecast period: 0600 UTC 23 July 2019 to 1200 UTC 24 July 2019
Forecast type: FROM: standard forecast or significant change
Winds: from the SSW (200 degrees) at 9 MPH (8 knots; 4.1 m/s)
Visibility: 6 or more miles 10+ km)
Ceiling: at least 12,000 feet AGL
Clouds: few clouds at 2300 feet AGL
Weather: no significant weather forecast for this period
Text: PROB40
Forecast period: 1300 to 1800 UTC 23 July 2019
Forecast type: TEMPORARY: The following changes expected for less than half the time period
Visibility: 2.49 miles (4.01 km)
Ceiling: at least 12,000 feet AGL
Clouds: scattered clouds at 2300 feet AGL
few clouds at 2600 feet AGL
Weather: TS SHRA  (thunderstorm, rain showers)